Time;durP1;ratioP1;P1;durP2;ratioP2;P2;SDS_P1;SDS_P2;PMS_P1;PMS_P2;Temp;Humidity;BMP_temperature;BMP_pressure;BME280_temperature;BME280_humidity;BME280_pressure;Samples;Min_cycle;Max_cycle;Signal;HPM_P1;HPM_P2
2022/05/26 00:01:32;;;;;;;;;;;;;;;;;;5092368;28;19991;-51
2022/05/26 00:03:58;;;;;;;;;;;;;;;;;;5092484;28;19904;-54
2022/05/26 00:06:25;;;;;;;;;;;;;;;;;;5092368;28;19912;-55
2022/05/26 00:08:52;;;;;;;;;;;;;;;;;;5092368;28;19920;-58
2022/05/26 00:11:18;;;;;;;;;;;;;;;;;;5092446;28;19908;-58
2022/05/26 00:13:45;;;;;;;;;;;;;;;;;;5092346;28;19908;-56
2022/05/26 00:16:11;;;;;;;;;;;;;;;;;;5092011;28;19915;-51
2022/05/26 00:18:38;;;;;;;;;;;;;;;;;;5091604;28;19922;-58
2022/05/26 00:21:04;;;;;;;;;;;;;;;;;;5092563;28;19912;-42
2022/05/26 00:23:31;;;;;;;;;;;;;;;;;;5091930;28;19970;-54
2022/05/26 00:25:57;;;;;;;;;;;;;;;;;;5092424;28;19908;-45
2022/05/26 00:28:24;;;;;;;;;;;;;;;;;;5091997;28;19920;-45
2022/05/26 00:30:50;;;;;;;;;;;;;;;;;;5092061;28;19908;-51
2022/05/26 00:33:16;;;;;;;;;;;;;;;;;;5092085;28;19915;-57
2022/05/26 00:35:43;;;;;;;;;;;;;;;;;;5092034;28;20251;-49
2022/05/26 00:38:09;;;;;;;;;;;;;;;;;;5074040;28;19948;-60
2022/05/26 00:40:36;;;;;;;;;;;;;;;;;;5091861;28;20004;-59
2022/05/26 00:43:03;;;;;;;;;;;;;;;;;;5092382;28;19915;-54
2022/05/26 00:45:29;;;;;;;;;;;;;;;;;;5091741;28;19908;-53
2022/05/26 00:47:55;;;;;;;;;;;;;;;;;;5092331;28;19959;-57
2022/05/26 00:50:22;;;;;;;;;;;;;;;;;;5092104;28;19909;-54
2022/05/26 00:52:48;;;;;;;;;;;;;;;;;;5092037;28;19931;-56
2022/05/26 00:55:15;;;;;;;;;;;;;;;;;;5091397;28;19931;-56
2022/05/26 00:57:41;;;;;;;;;;;;;;;;;;5091833;28;19915;-54
2022/05/26 01:00:09;;;;;;;;;;;;;;;;;;5092087;28;19912;-49
2022/05/26 01:02:36;;;;;;;;;;;;;;;;;;5091378;28;19954;-54
2022/05/26 01:05:02;;;;;;;;;;;;;;;;;;5090890;28;19962;-46
2022/05/26 01:07:29;;;;;;;;;;;;;;;;;;5094181;28;19924;-48
2022/05/26 01:09:58;;;;;;;;;;;;;;;;;;5095260;28;20007;-56
2022/05/26 01:12:25;;;;;;;;;;;;;;;;;;5094964;28;19908;-53
2022/05/26 01:14:51;;;;;;;;;;;;;;;;;;5094649;28;20410;-47
2022/05/26 01:17:18;;;;;;;;;;;;;;;;;;5087092;28;20363;-48
2022/05/26 01:19:45;;;;;;;;;;;;;;;;;;5075893;28;19920;-57
2022/05/26 01:22:12;;;;;;;;;;;;;;;;;;5074839;28;20018;-54
2022/05/26 01:24:38;;;;;;;;;;;;;;;;;;5074840;28;19908;-53
2022/05/26 01:27:05;;;;;;;;;;;;;;;;;;5075218;28;19909;-56
2022/05/26 01:29:31;;;;;;;;;;;;;;;;;;5075496;28;20018;-54
2022/05/26 01:31:58;;;;;;;;;;;;;;;;;;5075545;28;19908;-52
2022/05/26 01:34:24;;;;;;;;;;;;;;;;;;5074808;28;20061;-51
2022/05/26 01:36:51;;;;;;;;;;;;;;;;;;5074646;28;19988;-54
2022/05/26 01:39:17;;;;;;;;;;;;;;;;;;5074836;28;19966;-57
2022/05/26 01:41:44;;;;;;;;;;;;;;;;;;5074692;28;19939;-61
2022/05/26 01:44:10;;;;;;;;;;;;;;;;;;5074781;28;20367;-55
2022/05/26 01:46:37;;;;;;;;;;;;;;;;;;5074172;28;20282;-57
2022/05/26 01:49:04;;;;;;;;;;;;;;;;;;5074743;28;19960;-50
2022/05/26 01:51:30;;;;;;;;;;;;;;;;;;5074356;28;19908;-55
2022/05/26 01:53:57;;;;;;;;;;;;;;;;;;5074764;28;20007;-46
2022/05/26 01:56:24;;;;;;;;;;;;;;;;;;5074196;28;19988;-51
2022/05/26 01:58:51;;;;;;;;;;;;;;;;;;5074942;28;19908;-52
2022/05/26 02:01:17;;;;;;;;;;;;;;;;;;5074460;28;19909;-50
2022/05/26 02:03:44;;;;;;;;;;;;;;;;;;5074599;28;20393;-46
2022/05/26 02:06:10;;;;;;;;;;;;;;;;;;5076324;28;20329;-49
2022/05/26 02:08:36;;;;;;;;;;;;;;;;;;5094246;28;20323;-54
2022/05/26 02:11:03;;;;;;;;;;;;;;;;;;5095202;28;19980;-56
2022/05/26 02:13:29;;;;;;;;;;;;;;;;;;5094723;28;19985;-52
2022/05/26 02:15:56;;;;;;;;;;;;;;;;;;5094401;28;19908;-56
2022/05/26 02:18:22;;;;;;;;;;;;;;;;;;5093725;28;19909;-57
2022/05/26 02:20:49;;;;;;;;;;;;;;;;;;5094043;28;20345;-53
2022/05/26 02:23:15;;;;;;;;;;;;;;;;;;5094311;28;20273;-47
2022/05/26 02:25:42;;;;;;;;;;;;;;;;;;5094238;28;19933;-45
2022/05/26 02:28:08;;;;;;;;;;;;;;;;;;5094169;28;19916;-46
2022/05/26 02:30:35;;;;;;;;;;;;;;;;;;5094352;28;19923;-54
2022/05/26 02:33:01;;;;;;;;;;;;;;;;;;5094942;28;19908;-50
2022/05/26 02:35:28;;;;;;;;;;;;;;;;;;5094680;28;19908;-50
2022/05/26 02:37:54;;;;;;;;;;;;;;;;;;5094049;28;19959;-54
2022/05/26 02:40:21;;;;;;;;;;;;;;;;;;5094504;28;20382;-53
2022/05/26 02:42:47;;;;;;;;;;;;;;;;;;5094038;28;20274;-42
2022/05/26 02:45:14;;;;;;;;;;;;;;;;;;5094280;28;19989;-54
2022/05/26 02:47:41;;;;;;;;;;;;;;;;;;5094134;28;19923;-55
2022/05/26 02:50:07;;;;;;;;;;;;;;;;;;5094354;28;19946;-53
2022/05/26 02:52:34;;;;;;;;;;;;;;;;;;5093955;28;19912;-47
2022/05/26 02:55:00;;;;;;;;;;;;;;;;;;5093999;28;20393;-51
2022/05/26 02:57:27;;;;;;;;;;;;;;;;;;5093758;28;20255;-57
2022/05/26 02:59:54;;;;;;;;;;;;;;;;;;5093435;28;19913;-52
2022/05/26 03:02:20;;;;;;;;;;;;;;;;;;5093263;28;19919;-57
2022/05/26 03:04:47;;;;;;;;;;;;;;;;;;5093575;28;19908;-60
2022/05/26 03:07:13;;;;;;;;;;;;;;;;;;5093014;28;19923;-49
2022/05/26 03:09:40;;;;;;;;;;;;;;;;;;5093291;28;19919;-55
2022/05/26 03:12:06;;;;;;;;;;;;;;;;;;5092977;28;19908;-53
2022/05/26 03:14:33;;;;;;;;;;;;;;;;;;5093023;28;19943;-52
2022/05/26 03:16:59;;;;;;;;;;;;;;;;;;5093529;28;19919;-58
2022/05/26 03:19:26;;;;;;;;;;;;;;;;;;5093321;28;19908;-45
2022/05/26 03:21:52;;;;;;;;;;;;;;;;;;5093252;28;19973;-55
2022/05/26 03:24:18;;;;;;;;;;;;;;;;;;5093116;28;19908;-54
2022/05/26 03:26:45;;;;;;;;;;;;;;;;;;5092829;28;19908;-58
2022/05/26 03:29:11;;;;;;;;;;;;;;;;;;5091985;28;20008;-49
2022/05/26 03:31:38;;;;;;;;;;;;;;;;;;5091760;28;20278;-52
2022/05/26 03:42:18;;;;;;;;;;;;;;;;;;5093051;28;20362;-54
2022/05/26 03:44:45;;;;;;;;;;;;;;;;;;5092615;28;20370;-59
2022/05/26 03:47:11;;;;;;;;;;;;;;;;;;5092835;28;20327;-57
2022/05/26 03:49:38;;;;;;;;;;;;;;;;;;5092653;28;20328;-57
2022/05/26 03:52:04;;;;;;;;;;;;;;;;;;5091545;28;19973;-56
2022/05/26 03:54:33;;;;;;;;;;;;;;;;;;5091134;28;20266;-49
2022/05/26 03:56:59;;;;;;;;;;;;;;;;;;5092592;28;19919;-46
2022/05/26 03:59:25;;;;;;;;;;;;;;;;;;5092386;28;19908;-51
2022/05/26 04:01:52;;;;;;;;;;;;;;;;;;5091454;28;19908;-61
2022/05/26 04:04:18;;;;;;;;;;;;;;;;;;5091252;28;19908;-61
2022/05/26 04:06:45;;;;;;;;;;;;;;;;;;5090117;28;20404;-52
2022/05/26 04:09:11;;;;;;;;;;;;;;;;;;5090731;28;20224;-54
2022/05/26 04:11:38;;;;;;;;;;;;;;;;;;5091195;28;19939;-55
2022/05/26 04:14:04;;;;;;;;;;;;;;;;;;5091125;28;19908;-60
2022/05/26 04:16:31;;;;;;;;;;;;;;;;;;5091261;28;19908;-51
2022/05/26 04:18:57;;;;;;;;;;;;;;;;;;5092152;28;19908;-56
2022/05/26 04:21:23;;;;;;;;;;;;;;;;;;5092247;28;19919;-59
2022/05/26 04:23:50;;;;;;;;;;;;;;;;;;5092186;28;20007;-56
2022/05/26 04:26:16;;;;;;;;;;;;;;;;;;5092048;28;19909;-49
2022/05/26 04:28:43;;;;;;;;;;;;;;;;;;5091445;28;19916;-55
2022/05/26 04:31:09;;;;;;;;;;;;;;;;;;5089288;28;19912;-47
2022/05/26 04:33:36;;;;;;;;;;;;;;;;;;5089421;28;19912;-51
2022/05/26 04:36:02;;;;;;;;;;;;;;;;;;5088220;28;19907;-48
2022/05/26 04:38:29;;;;;;;;;;;;;;;;;;5090907;28;19908;-56
2022/05/26 04:40:55;;;;;;;;;;;;;;;;;;5090564;28;19914;-55
2022/05/26 04:43:22;;;;;;;;;;;;;;;;;;5093403;28;19908;-44
2022/05/26 04:45:48;;;;;;;;;;;;;;;;;;5091710;28;20035;-51
2022/05/26 04:48:16;;;;;;;;;;;;;;;;;;5093763;28;19966;-45
2022/05/26 04:50:46;;;;;;;;;;;;;;;;;;5093441;28;20641;-45
2022/05/26 04:53:12;;;;;;;;;;;;;;;;;;5093030;28;19908;-42
2022/05/26 04:55:39;;;;;;;;;;;;;;;;;;5091190;28;19981;-52
2022/05/26 04:58:05;;;;;;;;;;;;;;;;;;5093176;28;19908;-40
2022/05/26 05:00:32;;;;;;;;;;;;;;;;;;5093326;28;19950;-56
2022/05/26 05:02:58;;;;;;;;;;;;;;;;;;5090123;28;20410;-48
2022/05/26 05:05:24;;;;;;;;;;;;;;;;;;5091285;28;20266;-50
2022/05/26 05:07:51;;;;;;;;;;;;;;;;;;5092687;28;19919;-49
2022/05/26 05:10:17;;;;;;;;;;;;;;;;;;5093072;28;19939;-51
2022/05/26 05:12:44;;;;;;;;;;;;;;;;;;5092491;28;20069;-49
2022/05/26 05:15:10;;;;;;;;;;;;;;;;;;5092681;28;19909;-40
2022/05/26 05:17:40;;;;;;;;;;;;;;;;;;5091493;28;20367;-59
2022/05/26 05:20:06;;;;;;;;;;;;;;;;;;5092824;28;20319;-54
2022/05/26 05:22:33;;;;;;;;;;;;;;;;;;5092612;28;19908;-53
2022/05/26 05:24:59;;;;;;;;;;;;;;;;;;5092444;28;19999;-55
2022/05/26 05:27:26;;;;;;;;;;;;;;;;;;5091345;28;19934;-58
2022/05/26 05:29:52;;;;;;;;;;;;;;;;;;5096082;28;19908;-52
2022/05/26 05:32:19;;;;;;;;;;;;;;;;;;5095170;28;19951;-51
2022/05/26 05:34:45;;;;;;;;;;;;;;;;;;5094658;28;19908;-56
2022/05/26 05:37:12;;;;;;;;;;;;;;;;;;5093790;28;20318;-56
2022/05/26 05:39:38;;;;;;;;;;;;;;;;;;5093703;28;20264;-56
2022/05/26 05:42:05;;;;;;;;;;;;;;;;;;5095210;28;19981;-56
2022/05/26 05:44:32;;;;;;;;;;;;;;;;;;5088837;28;19916;-53
2022/05/26 05:46:58;;;;;;;;;;;;;;;;;;5093147;28;20011;-50
2022/05/26 05:49:25;;;;;;;;;;;;;;;;;;5091052;28;19920;-55
2022/05/26 05:51:52;;;;;;;;;;;;;;;;;;5093667;28;20470;-51
2022/05/26 05:54:19;;;;;;;;;;;;;;;;;;5091201;28;19908;-56
2022/05/26 05:56:46;;;;;;;;;;;;;;;;;;5091632;28;20024;-52
2022/05/26 05:59:12;;;;;;;;;;;;;;;;;;5091853;28;19916;-55
2022/05/26 06:01:39;;;;;;;;;;;;;;;;;;5091482;28;19908;-53
2022/05/26 06:04:05;;;;;;;;;;;;;;;;;;5091295;28;19908;-50
2022/05/26 06:06:32;;;;;;;;;;;;;;;;;;5094216;28;20381;-57
2022/05/26 06:08:58;;;;;;;;;;;;;;;;;;5094349;28;20321;-55
2022/05/26 06:11:24;;;;;;;;;;;;;;;;;;5095510;28;20371;-49
2022/05/26 06:13:51;;;;;;;;;;;;;;;;;;5091162;28;19912;-54
2022/05/26 06:16:17;;;;;;;;;;;;;;;;;;5092332;28;19970;-52
2022/05/26 06:18:45;;;;;;;;;;;;;;;;;;5092058;28;19923;-51
2022/05/26 06:21:12;;;;;;;;;;;;;;;;;;5091810;28;19909;-51
2022/05/26 06:23:38;;;;;;;;;;;;;;;;;;5090628;28;19995;-57
2022/05/26 06:26:05;;;;;;;;;;;;;;;;;;5091818;28;19908;-47
2022/05/26 06:31:20;;;;;;;;;;;;;;;;;;5090706;28;19930;-57
2022/05/26 06:39:15;;;;;;;;;;;;;;;;;;5093857;28;20048;-54
2022/05/26 06:44:26;;;;;;;;;;;;;;;;;;5093645;28;20022;-51
2022/05/26 06:46:53;;;;;;;;;;;;;;;;;;5093719;28;20044;-47
2022/05/26 06:49:19;;;;;;;;;;;;;;;;;;5093387;28;19931;-58
2022/05/26 06:51:45;;;;;;;;;;;;;;;;;;5093119;28;19908;-48
2022/05/26 06:54:12;;;;;;;;;;;;;;;;;;5093473;28;19916;-52
2022/05/26 06:56:38;;;;;;;;;;;;;;;;;;5093319;28;20018;-55
2022/05/26 06:59:05;;;;;;;;;;;;;;;;;;5093022;28;19919;-54
2022/05/26 07:01:31;;;;;;;;;;;;;;;;;;5093021;28;19977;-56
2022/05/26 07:03:58;;;;;;;;;;;;;;;;;;5093633;28;20334;-59
2022/05/26 07:06:24;;;;;;;;;;;;;;;;;;5091521;28;19939;-50
2022/05/26 07:08:51;;;;;;;;;;;;;;;;;;5092585;28;19955;-53
2022/05/26 07:11:17;;;;;;;;;;;;;;;;;;5093393;28;19908;-48
2022/05/26 07:13:44;;;;;;;;;;;;;;;;;;5093489;28;19950;-49
2022/05/26 07:16:10;;;;;;;;;;;;;;;;;;5079869;28;19916;-52
2022/05/26 07:18:37;;;;;;;;;;;;;;;;;;5085582;28;19944;-44
2022/05/26 07:21:03;;;;;;;;;;;;;;;;;;5086384;28;19949;-44
2022/05/26 07:23:33;;;;;;;;;;;;;;;;;;5078286;28;20321;-54
2022/05/26 07:25:59;;;;;;;;;;;;;;;;;;5070544;28;19913;-48
2022/05/26 07:28:26;;;;;;;;;;;;;;;;;;5051867;28;19925;-50
2022/05/26 07:30:52;;;;;;;;;;;;;;;;;;5079473;28;19916;-54
2022/05/26 07:33:19;;;;;;;;;;;;;;;;;;5082353;28;19947;-53
2022/05/26 07:35:45;;;;;;;;;;;;;;;;;;5074821;28;20300;-55
2022/05/26 07:43:55;;;;;;;;;;;;;;;;;;5027799;28;19923;-53
2022/05/26 07:46:22;;;;;;;;;;;;;;;;;;5071975;28;19909;-53
2022/05/26 07:48:48;;;;;;;;;;;;;;;;;;5071663;28;19920;-53
2022/05/26 07:51:15;;;;;;;;;;;;;;;;;;5071398;28;19950;-48
2022/05/26 07:53:41;;;;;;;;;;;;;;;;;;5069454;28;20003;-49
2022/05/26 07:56:07;;;;;;;;;;;;;;;;;;5070898;28;19962;-53
2022/05/26 07:58:35;;;;;;;;;;;;;;;;;;5071700;28;19948;-54
2022/05/26 08:01:03;;;;;;;;;;;;;;;;;;5071307;28;19946;-52
2022/05/26 08:03:29;;;;;;;;;;;;;;;;;;5072119;28;20253;-55
2022/05/26 08:05:56;;;;;;;;;;;;;;;;;;5071761;28;19941;-54
2022/05/26 08:08:22;;;;;;;;;;;;;;;;;;5091389;28;20074;-52
2022/05/26 08:10:49;;;;;;;;;;;;;;;;;;5091295;28;19908;-55
2022/05/26 08:13:15;;;;;;;;;;;;;;;;;;5092526;28;19908;-53
2022/05/26 08:15:42;;;;;;;;;;;;;;;;;;5092449;28;19912;-55
2022/05/26 08:18:08;;;;;;;;;;;;;;;;;;5092310;28;19931;-53
2022/05/26 08:20:35;;;;;;;;;;;;;;;;;;5087975;28;19952;-54
2022/05/26 08:23:01;;;;;;;;;;;;;;;;;;5088714;28;19915;-55
2022/05/26 08:25:29;;;;;;;;;;;;;;;;;;5090344;28;19959;-51
2022/05/26 08:27:55;;;;;;;;;;;;;;;;;;5089880;28;19912;-50
2022/05/26 08:30:22;;;;;;;;;;;;;;;;;;5088434;28;19915;-46
2022/05/26 08:32:48;;;;;;;;;;;;;;;;;;5089894;28;19957;-49
2022/05/26 08:35:15;;;;;;;;;;;;;;;;;;5091099;28;19957;-57
2022/05/26 08:37:41;;;;;;;;;;;;;;;;;;5092236;28;19913;-45
2022/05/26 08:40:08;;;;;;;;;;;;;;;;;;5092272;28;20365;-56
2022/05/26 08:42:35;;;;;;;;;;;;;;;;;;5090650;28;19919;-49
2022/05/26 08:45:01;;;;;;;;;;;;;;;;;;5092444;28;19961;-53
2022/05/26 08:47:28;;;;;;;;;;;;;;;;;;5092188;28;19950;-48
2022/05/26 08:49:56;;;;;;;;;;;;;;;;;;5092472;28;19923;-52
2022/05/26 08:52:22;;;;;;;;;;;;;;;;;;5091747;28;19908;-53
2022/05/26 08:54:49;;;;;;;;;;;;;;;;;;5092842;28;20382;-55
2022/05/26 08:57:15;;;;;;;;;;;;;;;;;;5092265;28;20260;-54
2022/05/26 08:59:42;;;;;;;;;;;;;;;;;;5091938;28;19962;-54
2022/05/26 09:02:08;;;;;;;;;;;;;;;;;;5106913;28;20094;-55
2022/05/26 09:04:35;;;;;;;;;;;;;;;;;;5112661;28;19911;-54
2022/05/26 09:15:16;;;;;;;;;;;;;;;;;;5104978;28;19977;-51
2022/05/26 09:17:42;;;;;;;;;;;;;;;;;;5092177;28;20282;-50
2022/05/26 09:20:08;;;;;;;;;;;;;;;;;;5092262;28;19955;-51
2022/05/26 09:22:35;;;;;;;;;;;;;;;;;;5091712;28;19915;-56
2022/05/26 09:25:01;;;;;;;;;;;;;;;;;;5092042;28;19962;-53
2022/05/26 09:27:28;;;;;;;;;;;;;;;;;;5091902;28;20351;-57
2022/05/26 09:29:54;;;;;;;;;;;;;;;;;;5094437;28;19920;-48
2022/05/26 09:32:22;;;;;;;;;;;;;;;;;;5094303;28;19930;-56
2022/05/26 09:34:48;;;;;;;;;;;;;;;;;;5094030;28;19958;-51
2022/05/26 09:37:15;;;;;;;;;;;;;;;;;;5094190;28;19912;-59
2022/05/26 09:39:44;;;;;;;;;;;;;;;;;;5094290;28;19995;-49
2022/05/26 09:42:10;;;;;;;;;;;;;;;;;;5095316;28;19909;-55
2022/05/26 09:44:37;;;;;;;;;;;;;;;;;;5095423;28;19950;-47
2022/05/26 09:47:03;;;;;;;;;;;;;;;;;;5094914;28;19949;-50
2022/05/26 09:49:32;;;;;;;;;;;;;;;;;;5094994;28;19966;-56
2022/05/26 09:51:58;;;;;;;;;;;;;;;;;;5095241;28;20054;-56
2022/05/26 09:54:25;;;;;;;;;;;;;;;;;;5094970;28;19908;-48
2022/05/26 09:56:52;;;;;;;;;;;;;;;;;;5095198;28;19991;-61
2022/05/26 09:59:18;;;;;;;;;;;;;;;;;;5095328;28;19919;-47
2022/05/26 10:01:45;;;;;;;;;;;;;;;;;;5095138;28;19915;-54
2022/05/26 10:04:11;;;;;;;;;;;;;;;;;;5094903;28;19908;-60
2022/05/26 10:06:38;;;;;;;;;;;;;;;;;;5094807;28;19920;-59
2022/05/26 10:09:04;;;;;;;;;;;;;;;;;;5094873;28;19920;-53
2022/05/26 10:11:31;;;;;;;;;;;;;;;;;;5095462;28;19963;-59
2022/05/26 10:13:57;;;;;;;;;;;;;;;;;;5095193;28;19937;-61
2022/05/26 10:16:23;;;;;;;;;;;;;;;;;;5095114;28;20014;-59
2022/05/26 10:18:50;;;;;;;;;;;;;;;;;;5095499;28;19930;-65
2022/05/26 10:21:16;;;;;;;;;;;;;;;;;;5094941;28;19931;-53
2022/05/26 10:23:43;;;;;;;;;;;;;;;;;;5095082;28;20365;-60
2022/05/26 10:26:09;;;;;;;;;;;;;;;;;;5094534;28;20354;-46
2022/05/26 10:28:36;;;;;;;;;;;;;;;;;;5094576;28;19916;-48
2022/05/26 10:31:03;;;;;;;;;;;;;;;;;;5095176;28;19927;-43
2022/05/26 10:33:29;;;;;;;;;;;;;;;;;;5094606;28;19908;-49
2022/05/26 10:35:56;;;;;;;;;;;;;;;;;;5094347;28;19950;-53
2022/05/26 10:38:22;;;;;;;;;;;;;;;;;;5094429;28;19908;-56
2022/05/26 10:40:49;;;;;;;;;;;;;;;;;;5094031;28;19908;-54
2022/05/26 10:43:16;;;;;;;;;;;;;;;;;;5094392;28;19999;-55
2022/05/26 10:45:42;;;;;;;;;;;;;;;;;;5094024;28;19914;-48
2022/05/26 10:48:09;;;;;;;;;;;;;;;;;;5091870;28;19969;-59
2022/05/26 10:50:35;;;;;;;;;;;;;;;;;;5092194;28;19908;-54
2022/05/26 10:53:02;;;;;;;;;;;;;;;;;;5092799;28;19916;-60
2022/05/26 10:55:28;;;;;;;;;;;;;;;;;;5093284;28;19908;-60
2022/05/26 10:57:55;;;;;;;;;;;;;;;;;;5093291;28;19912;-56
2022/05/26 11:00:21;;;;;;;;;;;;;;;;;;5093292;28;19930;-59
2022/05/26 11:02:47;;;;;;;;;;;;;;;;;;5093716;28;19930;-56
2022/05/26 11:05:17;;;;;;;;;;;;;;;;;;5094243;28;19927;-53
2022/05/26 11:07:44;;;;;;;;;;;;;;;;;;5093202;28;19947;-50
2022/05/26 11:10:10;;;;;;;;;;;;;;;;;;5093408;28;20014;-57
2022/05/26 11:12:36;;;;;;;;;;;;;;;;;;5093377;28;19987;-50
2022/05/26 11:17:47;;;;;;;;;;;;;;;;;;5094221;28;19930;-51
2022/05/26 11:20:14;;;;;;;;;;;;;;;;;;5094030;28;19919;-50
2022/05/26 11:22:48;;;;;;;;;;;;;;;;;;5069800;28;19917;-57
2022/05/26 11:25:15;;;;;;;;;;;;;;;;;;5067938;28;19926;-45
2022/05/26 11:27:41;;;;;;;;;;;;;;;;;;5070033;28;19908;-59
2022/05/26 11:36:07;;;;;;;;;;;;;;;;;;5070857;28;19919;-39
2022/05/26 11:38:23;;;;;;;;;;;;;;;;;;5070127;28;19953;-43
2022/05/26 11:40:50;;;;;;;;;;;;;;;;;;5070407;28;19916;-42
2022/05/26 11:43:16;;;;;;;;;;;;;;;;;;5070356;28;19909;-51
2022/05/26 11:45:43;;;;;;;;;;;;;;;;;;5067502;28;19920;-40
2022/05/26 11:48:09;;;;;;;;;;;;;;;;;;5070187;28;19985;-41
2022/05/26 11:50:36;;;;;;;;;;;;;;;;;;5069608;28;19927;-56
2022/05/26 11:53:02;;;;;;;;;;;;;;;;;;5070280;28;19954;-43
2022/05/26 11:55:29;;;;;;;;;;;;;;;;;;5067044;28;19923;-44
2022/05/26 11:57:55;;;;;;;;;;;;;;;;;;5070444;28;20007;-47
2022/05/26 12:00:21;;;;;;;;;;;;;;;;;;5069883;28;19916;-48
2022/05/26 12:02:50;;;;;;;;;;;;;;;;;;5070254;28;20378;-57
2022/05/26 12:05:17;;;;;;;;;;;;;;;;;;5067424;28;19917;-54
2022/05/26 12:07:45;;;;;;;;;;;;;;;;;;5078010;28;20003;-47
2022/05/26 12:10:12;;;;;;;;;;;;;;;;;;5081127;28;20329;-48
2022/05/26 12:12:42;;;;;;;;;;;;;;;;;;5083736;28;20213;-42
2022/05/26 12:15:11;;;;;;;;;;;;;;;;;;5081923;28;19935;-47
2022/05/26 12:17:38;;;;;;;;;;;;;;;;;;5086183;28;19916;-49
2022/05/26 12:20:04;;;;;;;;;;;;;;;;;;5087657;28;20255;-54
2022/05/26 12:22:36;;;;;;;;;;;;;;;;;;5083620;28;19935;-56
2022/05/26 12:25:02;;;;;;;;;;;;;;;;;;5084613;28;19912;-42
2022/05/26 12:27:29;;;;;;;;;;;;;;;;;;5084015;28;19908;-47
2022/05/26 12:29:55;;;;;;;;;;;;;;;;;;5089691;28;19916;-51
2022/05/26 12:32:21;;;;;;;;;;;;;;;;;;5093070;28;19966;-48
2022/05/26 12:34:48;;;;;;;;;;;;;;;;;;5092773;28;19908;-50
2022/05/26 12:37:14;;;;;;;;;;;;;;;;;;5092943;28;19912;-47
2022/05/26 12:39:43;;;;;;;;;;;;;;;;;;5092930;28;20386;-52
2022/05/26 12:42:09;;;;;;;;;;;;;;;;;;5092796;28;19943;-48
2022/05/26 12:44:36;;;;;;;;;;;;;;;;;;5092764;28;20378;-46
2022/05/26 12:47:02;;;;;;;;;;;;;;;;;;5092575;28;20377;-60
2022/05/26 12:49:29;;;;;;;;;;;;;;;;;;5074447;28;19916;-51
2022/05/26 12:51:55;;;;;;;;;;;;;;;;;;5092460;28;19919;-49
2022/05/26 12:54:22;;;;;;;;;;;;;;;;;;5092930;28;20389;-53
2022/05/26 12:56:48;;;;;;;;;;;;;;;;;;5091896;28;19909;-59
2022/05/26 12:59:15;;;;;;;;;;;;;;;;;;5074938;28;20017;-49
2022/05/26 13:01:41;;;;;;;;;;;;;;;;;;5094300;28;19909;-47
2022/05/26 13:04:07;;;;;;;;;;;;;;;;;;5096545;28;19912;-50
2022/05/26 13:06:34;;;;;;;;;;;;;;;;;;5096086;28;19926;-48
2022/05/26 13:09:00;;;;;;;;;;;;;;;;;;5096838;28;19970;-45
2022/05/26 13:11:27;;;;;;;;;;;;;;;;;;5096775;28;19914;-57
2022/05/26 13:13:54;;;;;;;;;;;;;;;;;;5096775;28;19994;-55
2022/05/26 13:16:21;;;;;;;;;;;;;;;;;;5097117;28;19909;-58
2022/05/26 13:18:48;;;;;;;;;;;;;;;;;;5096435;28;19909;-57
2022/05/26 13:21:14;;;;;;;;;;;;;;;;;;5096154;28;19938;-47
2022/05/26 13:23:40;;;;;;;;;;;;;;;;;;5096461;28;19931;-42
2022/05/26 13:26:07;;;;;;;;;;;;;;;;;;5096609;28;19965;-47
2022/05/26 13:28:33;;;;;;;;;;;;;;;;;;5096106;28;19969;-51
2022/05/26 13:34:01;;;;;;;;;;;;;;;;;;5014230;28;19945;-45
2022/05/26 13:36:28;;;;;;;;;;;;;;;;;;5078994;28;19947;-55
2022/05/26 13:38:54;;;;;;;;;;;;;;;;;;5096159;28;20015;-55
2022/05/26 13:41:21;;;;;;;;;;;;;;;;;;5077913;28;20399;-52
2022/05/26 13:43:47;;;;;;;;;;;;;;;;;;5096032;28;19953;-44
2022/05/26 13:46:14;;;;;;;;;;;;;;;;;;5096323;28;19915;-50
2022/05/26 13:48:42;;;;;;;;;;;;;;;;;;5095610;28;19919;-45
2022/05/26 13:51:09;;;;;;;;;;;;;;;;;;5095771;28;20374;-54
2022/05/26 13:53:35;;;;;;;;;;;;;;;;;;5096155;28;19958;-53
2022/05/26 13:56:02;;;;;;;;;;;;;;;;;;5095707;28;19915;-50
2022/05/26 13:58:28;;;;;;;;;;;;;;;;;;5095745;28;19959;-41
2022/05/26 14:00:55;;;;;;;;;;;;;;;;;;5095624;28;19954;-41
2022/05/26 14:03:21;;;;;;;;;;;;;;;;;;5095653;28;19904;-48
2022/05/26 14:05:48;;;;;;;;;;;;;;;;;;5095607;28;19908;-43
2022/05/26 14:08:14;;;;;;;;;;;;;;;;;;5095425;28;19931;-45
2022/05/26 14:10:41;;;;;;;;;;;;;;;;;;5077352;28;19908;-40
2022/05/26 14:13:07;;;;;;;;;;;;;;;;;;5095101;28;19908;-47
2022/05/26 14:15:34;;;;;;;;;;;;;;;;;;5095608;28;20321;-46
2022/05/26 14:18:00;;;;;;;;;;;;;;;;;;5095721;28;20341;-50
2022/05/26 14:20:29;;;;;;;;;;;;;;;;;;5095044;28;19909;-46
2022/05/26 14:22:56;;;;;;;;;;;;;;;;;;5095288;28;19915;-42
2022/05/26 14:25:22;;;;;;;;;;;;;;;;;;5095721;28;19940;-45
2022/05/26 14:27:49;;;;;;;;;;;;;;;;;;5095197;28;19908;-44
2022/05/26 14:30:15;;;;;;;;;;;;;;;;;;5095285;28;19961;-44
2022/05/26 14:32:42;;;;;;;;;;;;;;;;;;5095095;28;19912;-48
2022/05/26 14:35:08;;;;;;;;;;;;;;;;;;5095004;28;20308;-46
2022/05/26 14:37:35;;;;;;;;;;;;;;;;;;5095212;28;19912;-44
2022/05/26 14:40:01;;;;;;;;;;;;;;;;;;5095144;28;19931;-47
2022/05/26 14:42:28;;;;;;;;;;;;;;;;;;5094767;28;19916;-45
2022/05/26 14:44:54;;;;;;;;;;;;;;;;;;5094937;28;19956;-55
2022/05/26 14:47:20;;;;;;;;;;;;;;;;;;5094835;28;19984;-48
2022/05/26 14:49:48;;;;;;;;;;;;;;;;;;5094499;28;19923;-49
2022/05/26 14:52:15;;;;;;;;;;;;;;;;;;5094792;28;19912;-49
2022/05/26 14:57:25;;;;;;;;;;;;;;;;;;5094779;28;19915;-50
2022/05/26 14:59:52;;;;;;;;;;;;;;;;;;5094588;28;19922;-52
2022/05/26 15:02:18;;;;;;;;;;;;;;;;;;5094724;28;20002;-50
2022/05/26 15:04:45;;;;;;;;;;;;;;;;;;5094448;28;19912;-53
2022/05/26 15:07:11;;;;;;;;;;;;;;;;;;5094717;28;19920;-47
2022/05/26 15:09:38;;;;;;;;;;;;;;;;;;5094266;28;19938;-49
2022/05/26 15:12:04;;;;;;;;;;;;;;;;;;5094484;28;19919;-50
2022/05/26 15:14:31;;;;;;;;;;;;;;;;;;5093984;28;19908;-52
2022/05/26 15:16:57;;;;;;;;;;;;;;;;;;5094322;28;19908;-47
2022/05/26 15:19:24;;;;;;;;;;;;;;;;;;5094178;28;19912;-47
2022/05/26 15:21:53;;;;;;;;;;;;;;;;;;5094236;28;20396;-47
2022/05/26 15:24:19;;;;;;;;;;;;;;;;;;5093508;28;19953;-48
2022/05/26 15:26:45;;;;;;;;;;;;;;;;;;5093971;28;19909;-53
2022/05/26 15:29:12;;;;;;;;;;;;;;;;;;5090401;28;19920;-51
2022/05/26 15:31:38;;;;;;;;;;;;;;;;;;5094057;28;19909;-49
2022/05/26 15:34:05;;;;;;;;;;;;;;;;;;5094157;28;19908;-44
2022/05/26 15:36:31;;;;;;;;;;;;;;;;;;5093856;28;20371;-46
2022/05/26 15:38:58;;;;;;;;;;;;;;;;;;5075373;28;20298;-51
2022/05/26 15:41:24;;;;;;;;;;;;;;;;;;5093780;28;19916;-48
2022/05/26 15:43:51;;;;;;;;;;;;;;;;;;5075827;28;19918;-51
2022/05/26 15:46:17;;;;;;;;;;;;;;;;;;5093947;28;19908;-50
2022/05/26 15:48:44;;;;;;;;;;;;;;;;;;5093443;28;19920;-47
2022/05/26 15:51:10;;;;;;;;;;;;;;;;;;5093641;28;19912;-51
2022/05/26 15:53:37;;;;;;;;;;;;;;;;;;5093586;28;19916;-53
2022/05/26 15:56:03;;;;;;;;;;;;;;;;;;5093678;28;19909;-52
2022/05/26 15:58:30;;;;;;;;;;;;;;;;;;5093349;28;19916;-57
2022/05/26 16:00:56;;;;;;;;;;;;;;;;;;5093499;28;19908;-52
2022/05/26 16:03:23;;;;;;;;;;;;;;;;;;5093500;28;19919;-53
2022/05/26 16:05:49;;;;;;;;;;;;;;;;;;5093803;28;20359;-53
2022/05/26 16:08:16;;;;;;;;;;;;;;;;;;5112085;28;20263;-47
2022/05/26 16:10:42;;;;;;;;;;;;;;;;;;5113786;28;19930;-48
2022/05/26 16:13:08;;;;;;;;;;;;;;;;;;5113896;28;19949;-53
2022/05/26 16:15:35;;;;;;;;;;;;;;;;;;5113783;28;19912;-49
2022/05/26 16:18:01;;;;;;;;;;;;;;;;;;5114172;28;19904;-49
2022/05/26 16:20:28;;;;;;;;;;;;;;;;;;5113380;28;19908;-45
2022/05/26 16:22:54;;;;;;;;;;;;;;;;;;5113585;28;19943;-46
2022/05/26 16:25:21;;;;;;;;;;;;;;;;;;5113646;28;19999;-45
2022/05/26 16:27:47;;;;;;;;;;;;;;;;;;5112198;28;19924;-50
2022/05/26 16:30:14;;;;;;;;;;;;;;;;;;5112629;28;20335;-47
2022/05/26 16:32:42;;;;;;;;;;;;;;;;;;5113396;28;19947;-49
2022/05/26 16:37:54;;;;;;;;;;;;;;;;;;5117708;28;20254;-43
2022/05/26 16:40:20;;;;;;;;;;;;;;;;;;5117902;27;19915;-55
2022/05/26 16:42:48;;;;;;;;;;;;;;;;;;5117522;28;19953;-44
2022/05/26 16:45:14;;;;;;;;;;;;;;;;;;5117621;28;19911;-47
2022/05/26 16:47:40;;;;;;;;;;;;;;;;;;5117694;28;19915;-43
2022/05/26 16:50:07;;;;;;;;;;;;;;;;;;5117310;28;20374;-46
2022/05/26 16:52:33;;;;;;;;;;;;;;;;;;5117348;28;20266;-52
2022/05/26 16:55:00;;;;;;;;;;;;;;;;;;5117938;28;19991;-50
2022/05/26 16:57:26;;;;;;;;;;;;;;;;;;5117684;28;19908;-52
2022/05/26 16:59:53;;;;;;;;;;;;;;;;;;5117349;28;19956;-49
2022/05/26 17:02:19;;;;;;;;;;;;;;;;;;5117503;28;19968;-41
2022/05/26 17:04:46;;;;;;;;;;;;;;;;;;5117010;28;20007;-44
2022/05/26 17:07:12;;;;;;;;;;;;;;;;;;5117471;28;20002;-49
2022/05/26 17:09:39;;;;;;;;;;;;;;;;;;5117509;28;19916;-47
2022/05/26 17:12:05;;;;;;;;;;;;;;;;;;5117386;28;19908;-44
2022/05/26 17:22:46;;;;;;;;;;;;;;;;;;5116881;28;19969;-55
2022/05/26 17:25:12;;;;;;;;;;;;;;;;;;5117074;27;20018;-52
2022/05/26 17:27:39;;;;;;;;;;;;;;;;;;5116752;28;20010;-49
2022/05/26 17:30:06;;;;;;;;;;;;;;;;;;5116719;28;19922;-45
2022/05/26 17:32:33;;;;;;;;;;;;;;;;;;5116684;28;19952;-52
2022/05/26 17:34:59;;;;;;;;;;;;;;;;;;5116600;28;20050;-45
2022/05/26 17:37:26;;;;;;;;;;;;;;;;;;5116899;27;20006;-46
2022/05/26 17:39:52;;;;;;;;;;;;;;;;;;5116668;28;19908;-50